sensor_id;sensor_type;location;lat;lon;timestamp;pressure;altitude;pressure_sealevel;temperature;humidity
64080;BME280;51042;49.696;10.808;2024-02-28T00:01:36;98728.97;;;4.60;100.00
64080;BME280;51042;49.696;10.808;2024-02-28T00:04:01;98723.94;;;4.55;100.00
64080;BME280;51042;49.696;10.808;2024-02-28T00:06:27;98723.16;;;4.55;100.00
64080;BME280;51042;49.696;10.808;2024-02-28T00:08:52;98725.88;;;4.55;100.00
64080;BME280;51042;49.696;10.808;2024-02-28T00:11:19;98734.03;;;4.55;100.00
64080;BME280;51042;49.696;10.808;2024-02-28T00:13:45;98730.53;;;4.54;100.00
64080;BME280;51042;49.696;10.808;2024-02-28T00:16:10;98723.16;;;4.51;100.00
64080;BME280;51042;49.696;10.808;2024-02-28T00:18:36;98732.88;;;4.52;100.00
64080;BME280;51042;49.696;10.808;2024-02-28T00:21:02;98729.75;;;4.53;100.00
64080;BME280;51042;49.696;10.808;2024-02-28T00:23:28;98716.53;;;4.48;100.00
64080;BME280;51042;49.696;10.808;2024-02-28T00:25:54;98721.19;;;4.44;100.00
64080;BME280;51042;49.696;10.808;2024-02-28T00:28:19;98727.41;;;4.45;100.00
64080;BME280;51042;49.696;10.808;2024-02-28T00:30:44;98723.53;;;4.46;100.00
64080;BME280;51042;49.696;10.808;2024-02-28T00:33:10;98725.09;;;4.40;100.00
64080;BME280;51042;49.696;10.808;2024-02-28T00:35:35;98728.97;;;4.39;100.00
64080;BME280;51042;49.696;10.808;2024-02-28T00:38:00;98732.84;;;4.38;100.00
64080;BME280;51042;49.696;10.808;2024-02-28T00:40:26;98721.19;;;4.41;100.00
64080;BME280;51042;49.696;10.808;2024-02-28T00:42:53;98723.91;;;4.41;100.00
64080;BME280;51042;49.696;10.808;2024-02-28T00:45:18;98723.91;;;4.41;100.00
64080;BME280;51042;49.696;10.808;2024-02-28T00:47:44;98725.09;;;4.40;100.00
64080;BME280;51042;49.696;10.808;2024-02-28T00:50:09;98729.72;;;4.43;100.00
64080;BME280;51042;49.696;10.808;2024-02-28T00:52:36;98741.00;;;4.45;100.00
64080;BME280;51042;49.696;10.808;2024-02-28T00:55:02;98731.28;;;4.47;100.00
64080;BME280;51042;49.696;10.808;2024-02-28T00:57:29;98734.03;;;4.51;100.00
64080;BME280;51042;49.696;10.808;2024-02-28T00:59:55;98739.84;;;4.57;100.00
64080;BME280;51042;49.696;10.808;2024-02-28T01:02:20;98733.25;;;4.58;100.00
64080;BME280;51042;49.696;10.808;2024-02-28T01:04:46;98734.81;;;4.59;100.00
64080;BME280;51042;49.696;10.808;2024-02-28T01:07:12;98728.59;;;4.62;100.00
64080;BME280;51042;49.696;10.808;2024-02-28T01:09:37;98735.97;;;4.61;100.00
64080;BME280;51042;49.696;10.808;2024-02-28T01:12:02;98730.13;;;4.59;100.00
64080;BME280;51042;49.696;10.808;2024-02-28T01:14:28;98728.97;;;4.57;100.00
64080;BME280;51042;49.696;10.808;2024-02-28T01:16:53;98736.34;;;4.60;100.00
64080;BME280;51042;49.696;10.808;2024-02-28T01:19:18;98733.63;;;4.56;100.00
64080;BME280;51042;49.696;10.808;2024-02-28T01:21:44;98731.31;;;4.55;100.00
64080;BME280;51042;49.696;10.808;2024-02-28T01:24:09;98737.13;;;4.57;100.00
64080;BME280;51042;49.696;10.808;2024-02-28T01:26:34;98736.75;;;4.55;100.00
64080;BME280;51042;49.696;10.808;2024-02-28T01:29:00;98732.84;;;4.59;100.00
64080;BME280;51042;49.696;10.808;2024-02-28T01:31:25;98731.31;;;4.58;100.00
64080;BME280;51042;49.696;10.808;2024-02-28T01:33:50;98728.59;;;4.55;100.00
64080;BME280;51042;49.696;10.808;2024-02-28T01:36:15;98733.25;;;4.58;100.00
64080;BME280;51042;49.696;10.808;2024-02-28T01:38:41;98728.97;;;4.53;100.00
64080;BME280;51042;49.696;10.808;2024-02-28T01:41:06;98730.53;;;4.54;100.00
64080;BME280;51042;49.696;10.808;2024-02-28T01:43:32;98731.69;;;4.49;100.00
64080;BME280;51042;49.696;10.808;2024-02-28T01:45:59;98736.75;;;4.58;100.00
64080;BME280;51042;49.696;10.808;2024-02-28T01:48:28;98736.34;;;4.60;100.00
64080;BME280;51042;49.696;10.808;2024-02-28T01:50:54;98731.31;;;4.55;100.00
64080;BME280;51042;49.696;10.808;2024-02-28T01:53:20;98739.47;;;4.55;100.00
64080;BME280;51042;49.696;10.808;2024-02-28T01:55:45;98728.59;;;4.58;100.00
64080;BME280;51042;49.696;10.808;2024-02-28T01:58:12;98730.53;;;4.61;100.00
64080;BME280;51042;49.696;10.808;2024-02-28T02:00:37;98727.81;;;4.61;100.00
64080;BME280;51042;49.696;10.808;2024-02-28T02:03:04;98730.94;;;4.63;100.00
64080;BME280;51042;49.696;10.808;2024-02-28T02:05:30;98730.13;;;4.59;100.00
64080;BME280;51042;49.696;10.808;2024-02-28T02:07:57;98726.25;;;4.60;100.00
64080;BME280;51042;49.696;10.808;2024-02-28T02:10:23;98736.38;;;4.67;100.00
64080;BME280;51042;49.696;10.808;2024-02-28T02:12:50;98735.97;;;4.68;100.00
64080;BME280;51042;49.696;10.808;2024-02-28T02:15:15;98740.63;;;4.71;100.00
64080;BME280;51042;49.696;10.808;2024-02-28T02:17:41;98745.69;;;4.69;100.00
64080;BME280;51042;49.696;10.808;2024-02-28T02:20:06;98745.69;;;4.69;100.00
64080;BME280;51042;49.696;10.808;2024-02-28T02:22:37;98758.88;;;4.71;100.00
64080;BME280;51042;49.696;10.808;2024-02-28T02:25:05;98762.78;;;4.77;100.00
64080;BME280;51042;49.696;10.808;2024-02-28T02:27:31;98766.25;;;4.67;100.00
64080;BME280;51042;49.696;10.808;2024-02-28T02:29:57;98762.75;;;4.66;100.00
64080;BME280;51042;49.696;10.808;2024-02-28T02:32:22;98761.97;;;4.66;100.00
64080;BME280;51042;49.696;10.808;2024-02-28T02:34:48;98767.41;;;4.66;100.00
64080;BME280;51042;49.696;10.808;2024-02-28T02:37:13;98769.38;;;4.62;100.00
64080;BME280;51042;49.696;10.808;2024-02-28T02:39:38;98774.03;;;4.61;100.00
64080;BME280;51042;49.696;10.808;2024-02-28T02:42:04;98775.97;;;4.61;100.00
64080;BME280;51042;49.696;10.808;2024-02-28T02:44:29;98783.72;;;4.66;100.00
64080;BME280;51042;49.696;10.808;2024-02-28T02:46:54;98783.72;;;4.66;100.00
64080;BME280;51042;49.696;10.808;2024-02-28T02:49:20;98778.31;;;4.62;100.00
64080;BME280;51042;49.696;10.808;2024-02-28T02:51:45;98791.09;;;4.62;100.00
64080;BME280;51042;49.696;10.808;2024-02-28T02:54:10;98804.28;;;4.60;100.00
64080;BME280;51042;49.696;10.808;2024-02-28T02:56:36;98801.59;;;4.53;100.00
64080;BME280;51042;49.696;10.808;2024-02-28T02:59:01;98810.88;;;4.44;100.00
64080;BME280;51042;49.696;10.808;2024-02-28T03:01:27;98813.97;;;4.43;100.00
64080;BME280;51042;49.696;10.808;2024-02-28T03:03:53;98823.28;;;4.42;100.00
64080;BME280;51042;49.696;10.808;2024-02-28T03:06:18;98825.59;;;4.40;100.00
64080;BME280;51042;49.696;10.808;2024-02-28T03:08:43;98824.06;;;4.39;100.00
64080;BME280;51042;49.696;10.808;2024-02-28T03:11:09;98832.19;;;4.39;100.00
64080;BME280;51042;49.696;10.808;2024-02-28T03:13:34;98841.13;;;4.39;100.00
64080;BME280;51042;49.696;10.808;2024-02-28T03:15:59;98832.19;;;4.39;100.00
64080;BME280;51042;49.696;10.808;2024-02-28T03:18:25;98837.63;;;4.39;100.00
64080;BME280;51042;49.696;10.808;2024-02-28T03:20:50;98839.56;;;4.38;100.00
64080;BME280;51042;49.696;10.808;2024-02-28T03:23:15;98847.34;;;4.40;100.00
64080;BME280;51042;49.696;10.808;2024-02-28T03:25:41;98847.72;;;4.38;100.00
64080;BME280;51042;49.696;10.808;2024-02-28T03:28:06;98843.81;;;4.36;100.00
64080;BME280;51042;49.696;10.808;2024-02-28T03:30:31;98843.44;;;4.34;100.00
64080;BME280;51042;49.696;10.808;2024-02-28T03:32:57;98848.09;;;4.37;100.00
64080;BME280;51042;49.696;10.808;2024-02-28T03:35:22;98855.88;;;4.38;100.00
64080;BME280;51042;49.696;10.808;2024-02-28T03:37:47;98859.75;;;4.37;100.00
64080;BME280;51042;49.696;10.808;2024-02-28T03:40:13;98860.94;;;4.40;100.00
64080;BME280;51042;49.696;10.808;2024-02-28T03:42:39;98863.25;;;4.38;100.00
64080;BME280;51042;49.696;10.808;2024-02-28T03:45:05;98872.59;;;4.40;100.00
64080;BME280;51042;49.696;10.808;2024-02-28T03:47:31;98869.09;;;4.40;100.00
64080;BME280;51042;49.696;10.808;2024-02-28T03:49:56;98867.91;;;4.41;100.00
64080;BME280;51042;49.696;10.808;2024-02-28T03:52:22;98870.25;;;4.39;100.00
64080;BME280;51042;49.696;10.808;2024-02-28T03:54:48;98871.81;;;4.43;100.00
64080;BME280;51042;49.696;10.808;2024-02-28T03:57:13;98887.69;;;4.41;100.00
64080;BME280;51042;49.696;10.808;2024-02-28T03:59:40;98893.53;;;4.47;100.00
64080;BME280;51042;49.696;10.808;2024-02-28T04:02:06;98892.38;;;4.48;100.00
64080;BME280;51042;49.696;10.808;2024-02-28T04:04:31;98899.00;;;4.54;100.00
64080;BME280;51042;49.696;10.808;2024-02-28T04:06:56;98900.94;;;4.53;100.00
64080;BME280;51042;49.696;10.808;2024-02-28T04:09:22;98909.50;;;4.52;100.00
64080;BME280;51042;49.696;10.808;2024-02-28T04:11:47;98915.72;;;4.53;100.00
64080;BME280;51042;49.696;10.808;2024-02-28T04:14:13;98911.03;;;4.53;100.00
64080;BME280;51042;49.696;10.808;2024-02-28T04:16:42;98916.88;;;4.51;100.00
64080;BME280;51042;49.696;10.808;2024-02-28T04:19:09;98914.16;;;4.55;100.00
64080;BME280;51042;49.696;10.808;2024-02-28T04:21:34;98916.13;;;4.58;100.00
64080;BME280;51042;49.696;10.808;2024-02-28T04:24:00;98920.00;;;4.61;100.00
64080;BME280;51042;49.696;10.808;2024-02-28T04:26:25;98915.72;;;4.56;100.00
64080;BME280;51042;49.696;10.808;2024-02-28T04:28:51;98925.81;;;4.56;100.00
64080;BME280;51042;49.696;10.808;2024-02-28T04:31:16;98922.31;;;4.55;100.00
64080;BME280;51042;49.696;10.808;2024-02-28T04:33:41;98919.97;;;4.53;100.00
64080;BME280;51042;49.696;10.808;2024-02-28T04:36:07;98917.63;;;4.48;100.00
64080;BME280;51042;49.696;10.808;2024-02-28T04:38:32;98932.78;;;4.46;100.00
64080;BME280;51042;49.696;10.808;2024-02-28T04:40:57;98926.56;;;4.49;100.00
64080;BME280;51042;49.696;10.808;2024-02-28T04:43:22;98930.47;;;4.51;100.00
64080;BME280;51042;49.696;10.808;2024-02-28T04:45:48;98933.16;;;4.48;100.00
64080;BME280;51042;49.696;10.808;2024-02-28T04:48:13;98933.56;;;4.46;100.00
64080;BME280;51042;49.696;10.808;2024-02-28T04:50:39;98940.16;;;4.49;100.00
64080;BME280;51042;49.696;10.808;2024-02-28T04:53:04;98939.75;;;4.47;100.00
64080;BME280;51042;49.696;10.808;2024-02-28T04:55:30;98932.78;;;4.46;100.00
64080;BME280;51042;49.696;10.808;2024-02-28T04:57:55;98928.50;;;4.45;100.00
64080;BME280;51042;49.696;10.808;2024-02-28T05:00:20;98935.13;;;4.51;100.00
64080;BME280;51042;49.696;10.808;2024-02-28T05:02:46;98939.41;;;4.52;100.00
64080;BME280;51042;49.696;10.808;2024-02-28T05:05:11;98935.91;;;4.51;100.00
64080;BME280;51042;49.696;10.808;2024-02-28T05:07:36;98939.41;;;4.52;100.00
64080;BME280;51042;49.696;10.808;2024-02-28T05:10:02;98933.56;;;4.53;100.00
64080;BME280;51042;49.696;10.808;2024-02-28T05:12:27;98925.81;;;4.52;100.00
64080;BME280;51042;49.696;10.808;2024-02-28T05:14:52;98929.69;;;4.55;100.00
64080;BME280;51042;49.696;10.808;2024-02-28T05:17:18;98933.97;;;4.56;100.00
64080;BME280;51042;49.696;10.808;2024-02-28T05:19:43;98930.50;;;4.59;100.00
64080;BME280;51042;49.696;10.808;2024-02-28T05:22:08;98933.97;;;4.59;100.00
64080;BME280;51042;49.696;10.808;2024-02-28T05:24:39;98932.81;;;4.57;100.00
64080;BME280;51042;49.696;10.808;2024-02-28T05:27:04;98920.75;;;4.54;100.00
64080;BME280;51042;49.696;10.808;2024-02-28T05:29:30;98909.88;;;4.54;100.00
64080;BME280;51042;49.696;10.808;2024-02-28T05:31:55;98921.91;;;4.53;100.00
64080;BME280;51042;49.696;10.808;2024-02-28T05:34:20;98920.38;;;4.59;100.00
64080;BME280;51042;49.696;10.808;2024-02-28T05:36:46;98927.38;;;4.60;100.00
64080;BME280;51042;49.696;10.808;2024-02-28T05:39:11;98928.53;;;4.59;100.00
64080;BME280;51042;49.696;10.808;2024-02-28T05:41:36;98926.59;;;4.56;100.00
64080;BME280;51042;49.696;10.808;2024-02-28T05:44:02;98927.38;;;4.57;100.00
64080;BME280;51042;49.696;10.808;2024-02-28T05:46:27;98938.66;;;4.59;100.00
64080;BME280;51042;49.696;10.808;2024-02-28T05:48:52;98937.09;;;4.61;100.00
64080;BME280;51042;49.696;10.808;2024-02-28T05:51:18;98942.53;;;4.58;100.00
64080;BME280;51042;49.696;10.808;2024-02-28T05:53:44;98939.81;;;4.61;100.00
64080;BME280;51042;49.696;10.808;2024-02-28T05:56:09;98942.16;;;4.63;100.00
64080;BME280;51042;49.696;10.808;2024-02-28T05:58:42;98951.88;;;4.67;100.00
64080;BME280;51042;49.696;10.808;2024-02-28T06:01:09;98941.78;;;4.64;100.00
64080;BME280;51042;49.696;10.808;2024-02-28T06:03:35;98954.56;;;4.60;100.00
64080;BME280;51042;49.696;10.808;2024-02-28T06:06:01;98944.47;;;4.57;100.00
64080;BME280;51042;49.696;10.808;2024-02-28T06:08:29;98951.81;;;4.53;100.00
64080;BME280;51042;49.696;10.808;2024-02-28T06:10:56;98962.34;;;4.58;100.00
64080;BME280;51042;49.696;10.808;2024-02-28T06:13:21;98963.88;;;4.59;100.00
64080;BME280;51042;49.696;10.808;2024-02-28T06:15:46;98971.28;;;4.62;100.00
64080;BME280;51042;49.696;10.808;2024-02-28T06:18:12;98971.69;;;4.68;100.00
64080;BME280;51042;49.696;10.808;2024-02-28T06:20:37;98973.25;;;4.72;100.00
64080;BME280;51042;49.696;10.808;2024-02-28T06:23:03;98986.47;;;4.77;100.00
64080;BME280;51042;49.696;10.808;2024-02-28T06:25:29;98984.16;;;4.79;100.00
64080;BME280;51042;49.696;10.808;2024-02-28T06:27:54;98986.13;;;4.82;100.00
64080;BME280;51042;49.696;10.808;2024-02-28T06:30:19;98983.78;;;4.84;100.00
64080;BME280;51042;49.696;10.808;2024-02-28T06:32:45;98985.34;;;4.82;100.00
64080;BME280;51042;49.696;10.808;2024-02-28T06:35:10;98993.09;;;4.83;100.00
64080;BME280;51042;49.696;10.808;2024-02-28T06:37:35;98982.63;;;4.85;100.00
64080;BME280;51042;49.696;10.808;2024-02-28T06:40:02;98981.09;;;4.88;100.00
64080;BME280;51042;49.696;10.808;2024-02-28T06:42:29;98978.44;;;4.99;100.00
64080;BME280;51042;49.696;10.808;2024-02-28T06:44:54;98982.31;;;5.01;100.00
64080;BME280;51042;49.696;10.808;2024-02-28T06:47:20;98979.22;;;4.99;100.00
64080;BME280;51042;49.696;10.808;2024-02-28T06:49:46;98984.69;;;5.06;100.00
64080;BME280;51042;49.696;10.808;2024-02-28T06:52:11;98979.22;;;5.10;100.00
64080;BME280;51042;49.696;10.808;2024-02-28T06:54:37;98978.09;;;5.18;100.00
64080;BME280;51042;49.696;10.808;2024-02-28T06:57:02;98976.16;;;5.18;100.00
64080;BME280;51042;49.696;10.808;2024-02-28T06:59:28;98980.78;;;5.00;100.00
64080;BME280;51042;49.696;10.808;2024-02-28T07:01:53;98988.16;;;5.07;100.00
64080;BME280;51042;49.696;10.808;2024-02-28T07:04:19;98998.63;;;4.98;100.00
64080;BME280;51042;49.696;10.808;2024-02-28T07:06:44;99002.91;;;4.99;100.00
64080;BME280;51042;49.696;10.808;2024-02-28T07:09:10;99014.56;;;5.03;100.00
64080;BME280;51042;49.696;10.808;2024-02-28T07:11:37;99014.97;;;5.05;100.00
64080;BME280;51042;49.696;10.808;2024-02-28T07:14:02;99008.38;;;5.09;100.00
64080;BME280;51042;49.696;10.808;2024-02-28T07:16:28;99009.19;;;5.17;100.00
64080;BME280;51042;49.696;10.808;2024-02-28T07:18:58;99010.75;;;5.25;100.00
64080;BME280;51042;49.696;10.808;2024-02-28T07:21:25;99011.16;;;5.30;100.00
64080;BME280;51042;49.696;10.808;2024-02-28T07:23:50;98999.88;;;5.25;100.00
64080;BME280;51042;49.696;10.808;2024-02-28T07:26:16;99006.50;;;5.24;100.00
64080;BME280;51042;49.696;10.808;2024-02-28T07:28:41;99001.06;;;5.24;100.00
64080;BME280;51042;49.696;10.808;2024-02-28T07:31:14;99020.84;;;5.21;100.00
64080;BME280;51042;49.696;10.808;2024-02-28T07:33:40;99031.75;;;5.28;100.00
64080;BME280;51042;49.696;10.808;2024-02-28T07:36:05;99033.69;;;5.24;100.00
64080;BME280;51042;49.696;10.808;2024-02-28T07:38:31;99013.47;;;5.25;100.00
64080;BME280;51042;49.696;10.808;2024-02-28T07:40:56;99028.63;;;5.26;100.00
64080;BME280;51042;49.696;10.808;2024-02-28T07:43:22;99024.78;;;5.38;100.00
64080;BME280;51042;49.696;10.808;2024-02-28T07:45:47;99027.88;;;5.32;100.00
64080;BME280;51042;49.696;10.808;2024-02-28T07:48:12;99033.72;;;5.34;100.00
64080;BME280;51042;49.696;10.808;2024-02-28T07:50:38;99033.34;;;5.36;100.00
64080;BME280;51042;49.696;10.808;2024-02-28T07:53:03;99033.28;;;5.18;100.00
64080;BME280;51042;49.696;10.808;2024-02-28T07:55:29;99046.09;;;5.11;100.00
64080;BME280;51042;49.696;10.808;2024-02-28T07:57:54;99042.94;;;5.09;100.00
64080;BME280;51042;49.696;10.808;2024-02-28T08:00:20;99053.47;;;5.10;100.00
64080;BME280;51042;49.696;10.808;2024-02-28T08:02:45;99056.59;;;5.12;100.00
64080;BME280;51042;49.696;10.808;2024-02-28T08:05:11;99047.66;;;5.12;100.00
64080;BME280;51042;49.696;10.808;2024-02-28T08:07:36;99044.16;;;5.11;100.00
64080;BME280;51042;49.696;10.808;2024-02-28T08:10:04;99050.38;;;5.15;100.00
64080;BME280;51042;49.696;10.808;2024-02-28T08:12:31;99065.94;;;5.18;100.00
64080;BME280;51042;49.696;10.808;2024-02-28T08:14:57;99067.50;;;5.26;100.00
64080;BME280;51042;49.696;10.808;2024-02-28T08:17:22;99072.19;;;5.33;100.00
64080;BME280;51042;49.696;10.808;2024-02-28T08:19:48;99073.34;;;5.32;100.00
64080;BME280;51042;49.696;10.808;2024-02-28T08:22:13;99069.47;;;5.33;100.00
64080;BME280;51042;49.696;10.808;2024-02-28T08:24:39;99064.03;;;5.33;100.00
64080;BME280;51042;49.696;10.808;2024-02-28T08:27:04;99064.44;;;5.39;100.00
64080;BME280;51042;49.696;10.808;2024-02-28T08:29:30;99071.84;;;5.42;100.00
64080;BME280;51042;49.696;10.808;2024-02-28T08:31:57;99072.66;;;5.53;100.00
64080;BME280;51042;49.696;10.808;2024-02-28T08:34:23;99067.63;;;5.58;100.00
64080;BME280;51042;49.696;10.808;2024-02-28T08:36:48;99059.44;;;5.51;100.00
64080;BME280;51042;49.696;10.808;2024-02-28T08:39:14;99068.41;;;5.59;100.00
64080;BME280;51042;49.696;10.808;2024-02-28T08:41:39;99064.13;;;5.61;100.00
64080;BME280;51042;49.696;10.808;2024-02-28T08:44:04;99064.16;;;5.65;100.00
64080;BME280;51042;49.696;10.808;2024-02-28T08:46:30;99057.13;;;5.57;100.00
64080;BME280;51042;49.696;10.808;2024-02-28T08:48:55;99055.59;;;5.70;100.00
64080;BME280;51042;49.696;10.808;2024-02-28T08:51:20;99062.25;;;5.83;100.00
64080;BME280;51042;49.696;10.808;2024-02-28T08:53:46;99056.81;;;5.94;100.00
64080;BME280;51042;49.696;10.808;2024-02-28T08:56:11;99052.53;;;6.03;100.00
64080;BME280;51042;49.696;10.808;2024-02-28T08:58:37;99059.16;;;5.92;100.00
64080;BME280;51042;49.696;10.808;2024-02-28T09:01:02;99054.09;;;5.94;100.00
64080;BME280;51042;49.696;10.808;2024-02-28T09:03:29;99057.63;;;6.05;100.00
64080;BME280;51042;49.696;10.808;2024-02-28T09:05:54;99052.94;;;6.05;100.00
64080;BME280;51042;49.696;10.808;2024-02-28T09:08:19;99051.75;;;6.03;100.00
64080;BME280;51042;49.696;10.808;2024-02-28T09:10:45;99050.22;;;6.20;100.00
64080;BME280;51042;49.696;10.808;2024-02-28T09:13:11;99058.41;;;6.23;100.00
64080;BME280;51042;49.696;10.808;2024-02-28T09:15:37;99042.41;;;5.97;100.00
64080;BME280;51042;49.696;10.808;2024-02-28T09:18:02;99055.28;;;6.10;100.00
64080;BME280;51042;49.696;10.808;2024-02-28T09:20:28;99052.56;;;6.18;100.00
64080;BME280;51042;49.696;10.808;2024-02-28T09:22:53;99057.22;;;6.28;100.00
64080;BME280;51042;49.696;10.808;2024-02-28T09:25:18;99059.97;;;6.13;100.00
64080;BME280;51042;49.696;10.808;2024-02-28T09:27:46;99054.88;;;6.05;100.00
64080;BME280;51042;49.696;10.808;2024-02-28T09:30:12;99050.59;;;6.29;100.00
64080;BME280;51042;49.696;10.808;2024-02-28T09:32:37;99047.06;;;6.49;100.00
64080;BME280;51042;49.696;10.808;2024-02-28T09:35:03;99049.78;;;6.67;100.00
64080;BME280;51042;49.696;10.808;2024-02-28T09:37:29;99041.59;;;6.71;100.00
64080;BME280;51042;49.696;10.808;2024-02-28T09:39:55;99040.03;;;6.70;100.00
64080;BME280;51042;49.696;10.808;2024-02-28T09:42:20;99035.00;;;6.61;100.00
64080;BME280;51042;49.696;10.808;2024-02-28T09:44:45;99035.72;;;6.79;100.00
64080;BME280;51042;49.696;10.808;2024-02-28T09:47:11;99031.47;;;6.78;100.00
64080;BME280;51042;49.696;10.808;2024-02-28T09:49:36;99040.38;;;6.96;100.00
64080;BME280;51042;49.696;10.808;2024-02-28T09:52:02;99033.72;;;7.01;100.00
64080;BME280;51042;49.696;10.808;2024-02-28T09:54:28;99036.44;;;6.97;100.00
64080;BME280;51042;49.696;10.808;2024-02-28T09:56:54;99044.19;;;7.13;100.00
64080;BME280;51042;49.696;10.808;2024-02-28T09:59:20;99046.56;;;7.08;100.00
64080;BME280;51042;49.696;10.808;2024-02-28T10:01:51;99043.75;;;7.25;100.00
64080;BME280;51042;49.696;10.808;2024-02-28T10:04:20;99043.69;;;7.39;100.00
64080;BME280;51042;49.696;10.808;2024-02-28T10:06:46;99042.56;;;7.30;100.00
64080;BME280;51042;49.696;10.808;2024-02-28T10:09:13;99041.38;;;7.34;100.00
64080;BME280;51042;49.696;10.808;2024-02-28T10:11:40;99037.53;;;7.18;100.00
64080;BME280;51042;49.696;10.808;2024-02-28T10:14:08;99046.50;;;7.18;100.00
64080;BME280;51042;49.696;10.808;2024-02-28T10:16:34;99048.13;;;7.09;100.00
64080;BME280;51042;49.696;10.808;2024-02-28T10:18:59;99051.91;;;7.29;100.00
64080;BME280;51042;49.696;10.808;2024-02-28T10:21:24;99058.03;;;7.54;100.00
64080;BME280;51042;49.696;10.808;2024-02-28T10:23:51;99058.78;;;7.62;100.00
64080;BME280;51042;49.696;10.808;2024-02-28T10:26:16;99067.00;;;7.62;100.00
64080;BME280;51042;49.696;10.808;2024-02-28T10:28:42;99060.72;;;7.65;100.00
64080;BME280;51042;49.696;10.808;2024-02-28T10:31:09;99059.97;;;7.57;100.00
64080;BME280;51042;49.696;10.808;2024-02-28T10:33:35;99066.75;;;7.31;100.00
64080;BME280;51042;49.696;10.808;2024-02-28T10:36:02;99067.84;;;7.45;100.00
64080;BME280;51042;49.696;10.808;2024-02-28T10:38:30;99058.69;;;7.79;100.00
64080;BME280;51042;49.696;10.808;2024-02-28T10:40:58;99054.38;;;7.82;100.00
64080;BME280;51042;49.696;10.808;2024-02-28T10:43:25;99050.66;;;7.48;100.00
64080;BME280;51042;49.696;10.808;2024-02-28T10:45:53;99056.53;;;7.50;100.00
64080;BME280;51042;49.696;10.808;2024-02-28T10:48:22;99051.63;;;7.86;100.00
64080;BME280;51042;49.696;10.808;2024-02-28T10:50:49;99047.34;;;8.36;100.00
64080;BME280;51042;49.696;10.808;2024-02-28T10:53:15;99048.25;;;8.67;100.00
64080;BME280;51042;49.696;10.808;2024-02-28T10:55:45;99029.34;;;9.14;100.00
64080;BME280;51042;49.696;10.808;2024-02-28T10:58:13;99031.09;;;9.31;100.00
64080;BME280;51042;49.696;10.808;2024-02-28T11:00:40;99032.38;;;9.53;100.00
64080;BME280;51042;49.696;10.808;2024-02-28T11:03:09;99025.50;;;9.68;100.00
64080;BME280;51042;49.696;10.808;2024-02-28T11:05:39;99026.50;;;9.78;100.00
64080;BME280;51042;49.696;10.808;2024-02-28T11:08:08;99029.31;;;9.74;100.00
64080;BME280;51042;49.696;10.808;2024-02-28T11:10:40;99033.81;;;9.31;100.00
64080;BME280;51042;49.696;10.808;2024-02-28T11:13:07;99040.47;;;9.30;100.00
64080;BME280;51042;49.696;10.808;2024-02-28T11:15:34;99031.28;;;9.17;100.00
64080;BME280;51042;49.696;10.808;2024-02-28T11:18:06;99030.34;;;8.96;100.00
64080;BME280;51042;49.696;10.808;2024-02-28T11:20:34;99034.03;;;8.79;100.00
64080;BME280;51042;49.696;10.808;2024-02-28T11:22:59;99037.47;;;9.21;100.00
64080;BME280;51042;49.696;10.808;2024-02-28T11:25:25;99026.69;;;9.37;100.00
64080;BME280;51042;49.696;10.808;2024-02-28T11:27:50;99031.63;;;9.19;100.00
64080;BME280;51042;49.696;10.808;2024-02-28T11:30:15;99025.25;;;9.29;100.00
64080;BME280;51042;49.696;10.808;2024-02-28T11:32:42;99028.59;;;9.97;100.00
64080;BME280;51042;49.696;10.808;2024-02-28T11:35:08;99024.16;;;10.53;100.00
64080;BME280;51042;49.696;10.808;2024-02-28T11:37:34;99013.06;;;10.60;100.00
64080;BME280;51042;49.696;10.808;2024-02-28T11:40:00;99011.66;;;10.92;100.00
64080;BME280;51042;49.696;10.808;2024-02-28T11:42:25;99006.59;;;10.71;100.00
64080;BME280;51042;49.696;10.808;2024-02-28T11:44:54;99007.63;;;10.57;100.00
64080;BME280;51042;49.696;10.808;2024-02-28T11:47:23;99008.72;;;10.13;100.00
64080;BME280;51042;49.696;10.808;2024-02-28T11:49:48;99013.09;;;10.10;100.00
64080;BME280;51042;49.696;10.808;2024-02-28T11:52:14;99005.56;;;10.41;100.00
64080;BME280;51042;49.696;10.808;2024-02-28T11:54:40;99005.31;;;10.75;100.00
64080;BME280;51042;49.696;10.808;2024-02-28T11:57:07;99011.72;;;10.69;100.00
64080;BME280;51042;49.696;10.808;2024-02-28T11:59:32;99014.50;;;11.44;100.00
64080;BME280;51042;49.696;10.808;2024-02-28T12:01:58;99003.56;;;11.04;100.00
64080;BME280;51042;49.696;10.808;2024-02-28T12:04:23;99011.69;;;9.18;100.00
64080;BME280;51042;49.696;10.808;2024-02-28T12:06:50;99003.91;;;9.43;100.00
64080;BME280;51042;49.696;10.808;2024-02-28T12:09:16;99008.72;;;10.16;100.00
64080;BME280;51042;49.696;10.808;2024-02-28T12:11:43;99005.06;;;10.46;100.00
64080;BME280;51042;49.696;10.808;2024-02-28T12:14:09;98999.75;;;10.79;100.00
64080;BME280;51042;49.696;10.808;2024-02-28T12:16:37;98990.03;;;10.54;100.00
64080;BME280;51042;49.696;10.808;2024-02-28T12:19:07;98986.47;;;10.11;100.00
64080;BME280;51042;49.696;10.808;2024-02-28T12:21:36;98991.56;;;10.09;100.00
64080;BME280;51042;49.696;10.808;2024-02-28T12:24:02;98986.91;;;9.82;100.00
64080;BME280;51042;49.696;10.808;2024-02-28T12:26:29;98988.22;;;9.98;100.00
64080;BME280;51042;49.696;10.808;2024-02-28T12:28:54;98980.31;;;10.50;100.00
64080;BME280;51042;49.696;10.808;2024-02-28T12:31:20;98972.16;;;10.86;100.00
64080;BME280;51042;49.696;10.808;2024-02-28T12:33:46;98974.31;;;10.12;100.00
64080;BME280;51042;49.696;10.808;2024-02-28T12:36:12;98979.41;;;10.56;100.00
64080;BME280;51042;49.696;10.808;2024-02-28T12:38:38;98976.16;;;11.57;100.00
64080;BME280;51042;49.696;10.808;2024-02-28T12:41:05;98966.28;;;11.59;100.00
64080;BME280;51042;49.696;10.808;2024-02-28T12:43:30;98965.19;;;11.73;100.00